Time;durP1;ratioP1;P1;durP2;ratioP2;P2;SDS_P1;SDS_P2;PMS_P1;PMS_P2;Temp;Humidity;BMP_temperature;BMP_pressure;BME280_temperature;BME280_humidity;BME280_pressure;Samples;Min_cycle;Max_cycle;Signal;HPM_P1;HPM_P2
2021/04/21 00:02:01;;;;;;;28.92;16.92;;;;;;;5.30;88.55;96920.66;5023415;28;20052;-69
2021/04/21 00:04:29;;;;;;;27.00;15.32;;;;;;;5.29;89.02;96918.25;5023635;28;20492;-69
2021/04/21 00:06:57;;;;;;;28.92;16.25;;;;;;;5.37;89.62;96914.59;5023067;28;20690;-68
2021/04/21 00:09:24;;;;;;;26.23;15.02;;;;;;;4.75;89.31;96821.47;5023475;28;20137;-69
2021/04/21 00:11:50;;;;;;;27.15;15.95;;;;;;;5.30;89.38;96915.16;5023240;28;20033;-69
2021/04/21 00:14:19;;;;;;;25.17;15.63;;;;;;;5.23;90.14;96925.09;5038450;28;20483;-69
2021/04/21 00:16:48;;;;;;;29.92;17.85;;;;;;;5.26;89.29;96919.75;5023401;28;20040;-68
2021/04/21 00:19:18;;;;;;;28.33;17.33;;;;;;;5.19;89.81;96908.50;5023674;28;20036;-69
2021/04/21 00:21:46;;;;;;;34.13;18.17;;;;;;;5.12;91.23;96918.44;5021550;28;20037;-68
2021/04/21 00:24:12;;;;;;;30.88;17.42;;;;;;;5.16;91.79;96913.84;5023687;28;20568;-68
2021/04/21 00:26:39;;;;;;;26.70;15.25;;;;;;;4.34;90.65;96800.41;5023309;28;20037;-68
2021/04/21 00:29:07;;;;;;;30.75;16.17;;;;;;;4.82;90.72;96842.84;5021929;28;20487;-70
2021/04/21 00:31:33;;;;;;;30.48;16.48;;;;;;;5.38;90.84;96916.19;5022603;28;20520;-69
2021/04/21 00:34:02;;;;;;;28.55;16.35;;;;;;;1.38;90.07;96272.56;5023540;28;20052;-69
2021/04/21 00:36:32;;;;;;;28.15;16.90;;;;;;;5.36;90.44;96907.53;5022965;28;20067;-69
2021/04/21 00:39:00;;;;;;;34.42;17.73;;;;;;;5.23;92.00;96928.63;5026855;28;20033;-69
2021/04/21 00:41:40;;;;;;;30.17;17.25;;;;;;;5.22;92.06;96913.31;5027031;28;20489;-70
2021/04/21 00:44:42;;;;;;;26.63;16.05;;;;;;;4.93;93.04;96915.38;5027486;28;20466;-69
2021/04/21 00:47:12;;;;;;;30.17;16.25;;;;;;;4.94;93.45;96922.47;5026173;28;20057;-69
2021/04/21 00:49:50;;;;;;;28.70;16.20;;;;;;;5.04;91.75;96930.28;5027534;28;20092;-70
2021/04/21 00:52:26;;;;;;;29.50;16.33;;;;;;;5.00;91.80;96929.34;5026545;28;20546;-69
2021/04/21 00:55:16;;;;;;;32.35;17.40;;;;;;;4.81;92.87;96912.56;5026869;28;20037;-69
2021/04/21 00:57:54;;;;;;;28.98;16.83;;;;;;;4.64;93.78;96910.78;5025067;28;20048;-70
2021/04/21 01:00:27;;;;;;;33.92;17.23;;;;;;;4.82;93.47;96927.91;5026398;28;20484;-69
2021/04/21 01:03:22;;;;;;;35.67;17.25;;;;;;;4.79;93.08;96923.88;5025066;28;20409;-69
2021/04/21 01:05:57;;;;;;;33.10;18.13;;;;;;;4.86;93.57;96929.66;5041393;28;20033;-69
2021/04/21 01:08:27;;;;;;;26.63;15.38;;;;;;;4.86;91.80;96934.31;5027361;28;20132;-69
2021/04/21 01:10:59;;;;;;;27.58;16.40;;;;;;;4.41;91.73;96877.41;5026289;28;20073;-69
2021/04/21 01:13:29;;;;;;;31.50;17.10;;;;;;;4.74;92.27;96923.31;5026815;28;20049;-69
2021/04/21 01:15:57;;;;;;;32.90;16.65;;;;;;;4.80;91.77;96938.41;5024539;28;20060;-69
2021/04/21 01:18:26;;;;;;;29.92;16.90;;;;;;;4.85;92.62;96925.31;5026481;28;20577;-69
2021/04/21 01:21:02;;;;;;;33.42;16.55;;;;;;;4.50;91.76;96891.84;5024044;28;20140;-69
2021/04/21 01:24:21;;;;;;;37.05;19.25;;;;;;;4.80;91.58;96927.44;5026505;28;20120;-70
2021/04/21 01:26:50;;;;;;;34.28;18.23;;;;;;;4.75;92.36;96935.88;5005807;28;20068;-68
2021/04/21 01:29:25;;;;;;;31.30;16.75;;;;;;;4.76;93.44;96932.00;5026269;28;20128;-69
2021/04/21 01:31:53;;;;;;;55.50;24.95;;;;;;;4.06;94.25;96870.56;5040911;28;20147;-69
2021/04/21 01:34:22;;;;;;;33.53;18.85;;;;;;;4.15;91.41;96854.91;5025006;28;20042;-69
2021/04/21 01:36:48;;;;;;;33.88;17.77;;;;;;;4.62;92.26;96911.13;5026284;28;20055;-69
2021/04/21 01:39:16;;;;;;;38.45;19.45;;;;;;;3.89;92.23;96776.75;5026397;28;20061;-69
2021/04/21 01:41:47;;;;;;;34.90;18.65;;;;;;;4.80;92.31;96927.44;5025949;28;20440;-69
2021/04/21 01:44:15;;;;;;;31.23;17.35;;;;;;;4.78;91.91;96932.44;5026297;28;20562;-68
2021/04/21 01:46:56;;;;;;;32.30;17.40;;;;;;;4.74;92.21;96934.28;5025385;28;20050;-70
2021/04/21 01:49:21;;;;;;;28.67;16.00;;;;;;;4.72;93.12;96920.09;5023369;28;20061;-68
2021/04/21 01:51:54;;;;;;;31.63;18.33;;;;;;;3.92;93.22;96798.78;5025982;28;20526;-70
2021/04/21 01:54:20;;;;;;;41.40;19.92;;;;;;;4.43;95.29;96930.00;5025856;28;20119;-69
2021/04/21 01:56:51;;;;;;;34.85;19.27;;;;;;;4.40;95.31;96919.69;5025043;28;20041;-69
2021/04/21 01:59:34;;;;;;;35.85;18.88;;;;;;;4.37;95.41;96931.31;5026202;28;20033;-70
2021/04/21 02:02:25;;;;;;;31.92;16.60;;;;;;;4.38;95.06;96927.44;5025524;28;20068;-69
2021/04/21 02:05:18;;;;;;;32.80;17.40;;;;;;;4.28;95.10;96932.53;5025609;28;20029;-69
2021/04/21 02:07:59;;;;;;;37.85;19.33;;;;;;;4.29;94.93;96934.94;5025645;28;20112;-69
2021/04/21 02:10:43;;;;;;;41.10;19.75;;;;;;;4.35;94.03;96939.06;5025638;28;20421;-69
2021/04/21 02:13:30;;;;;;;33.70;19.55;;;;;;;4.37;94.06;96931.31;5025601;28;20042;-69
2021/04/21 02:15:58;;;;;;;37.85;21.35;;;;;;;4.39;92.81;96936.47;5025130;28;20052;-69
2021/04/21 02:18:39;;;;;;;35.38;19.48;;;;;;;4.20;95.21;96925.97;5025355;28;20037;-69
2021/04/21 02:21:16;;;;;;;31.42;18.05;;;;;;;3.49;95.54;96801.03;5025462;28;20524;-69
2021/04/21 02:23:58;;;;;;;34.00;17.88;;;;;;;4.16;96.91;96935.97;5025822;28;20041;-69
2021/04/21 02:26:45;;;;;;;40.60;18.50;;;;;;;4.31;94.85;96931.84;5025074;28;20025;-69
2021/04/21 02:29:24;;;;;;;33.75;17.73;;;;;;;4.30;93.45;96936.53;5023369;28;20483;-70
2021/04/21 02:32:00;;;;;;;34.60;18.75;;;;;;;4.10;93.86;96920.06;5023102;28;20043;-69
2021/04/21 02:34:44;;;;;;;32.78;18.08;;;;;;;4.18;94.61;96944.69;5025155;28;20079;-70
2021/04/21 02:37:24;;;;;;;33.50;18.45;;;;;;;3.85;94.47;96877.97;5023191;28;20037;-69
2021/04/21 02:40:04;;;;;;;32.17;18.15;;;;;;;3.64;95.24;96857.13;5024986;28;20079;-68
2021/04/21 02:43:05;;;;;;;32.50;18.35;;;;;;;4.25;94.18;96939.47;5024399;28;20037;-69
2021/04/21 02:45:40;;;;;;;32.83;17.45;;;;;;;4.31;92.71;96951.84;5022768;28;20617;-69
2021/04/21 02:48:14;;;;;;;34.20;18.77;;;;;;;4.26;91.69;96952.03;5024773;28;20029;-68
2021/04/21 02:50:48;;;;;;;36.35;18.45;;;;;;;3.95;92.02;96929.63;5023938;28;20504;-70
2021/04/21 02:53:44;;;;;;;30.23;16.77;;;;;;;3.87;91.64;96899.56;5024708;28;20037;-69
2021/04/21 02:56:30;;;;;;;30.50;16.27;;;;;;;4.09;92.59;96960.38;5024230;28;20087;-69
2021/04/21 02:58:58;;;;;;;32.40;18.55;;;;;;;3.87;94.91;96943.41;5022947;28;20041;-70
2021/04/21 03:01:44;;;;;;;39.70;20.95;;;;;;;3.81;96.54;96950.19;5021833;28;20060;-70
2021/04/21 03:04:18;;;;;;;43.47;21.38;;;;;;;3.97;94.38;96949.28;5024696;28;20607;-70
2021/04/21 03:06:50;;;;;;;42.28;21.15;;;;;;;3.36;94.73;96881.44;5024252;28;20542;-69
2021/04/21 03:09:33;;;;;;;46.40;22.38;;;;;;;2.88;95.89;96786.00;5039770;28;20128;-69
2021/04/21 03:12:01;;;;;;;48.05;24.40;;;;;;;4.01;96.52;96958.47;5023948;28;20060;-69
2021/04/21 03:14:29;;;;;;;52.83;28.35;;;;;;;3.45;95.14;96887.66;5024364;28;20041;-69
2021/04/21 03:17:01;;;;;;;76.15;37.25;;;;;;;3.37;94.25;96869.34;5023596;28;20209;-69
2021/04/21 03:19:32;;;;;;;57.92;30.63;;;;;;;3.25;93.31;96843.81;5039388;28;20065;-70
2021/04/21 03:22:00;;;;;;;41.45;24.45;;;;;;;3.17;96.32;96877.47;5023966;28;20037;-70
2021/04/21 03:24:33;;;;;;;37.60;20.63;;;;;;;2.56;97.82;96818.59;5022464;28;20036;-69
2021/04/21 03:27:03;;;;;;;31.65;17.83;;;;;;;3.68;96.86;96968.47;5023630;28;20047;-68
2021/04/21 03:29:52;;;;;;;41.70;22.25;;;;;;;3.57;97.37;96966.41;5022567;28;20239;-69
2021/04/21 03:32:27;;;;;;;38.90;19.10;;;;;;;3.75;95.89;96974.22;5023335;28;20559;-68
2021/04/21 03:34:56;;;;;;;41.05;21.75;;;;;;;3.35;96.48;96909.91;5022534;28;20064;-68
2021/04/21 03:37:29;;;;;;;50.78;26.35;;;;;;;3.81;96.80;96994.03;5023688;28;20564;-70
2021/04/21 03:39:56;;;;;;;34.95;18.88;;;;;;;3.59;95.33;96953.97;5024070;28;20033;-68
2021/04/21 03:42:21;;;;;;;40.75;21.75;;;;;;;3.99;95.42;96990.88;5023944;28;20034;-69
2021/04/21 03:44:47;;;;;;;40.08;21.83;;;;;;;3.93;96.08;96983.97;5022344;28;20499;-69
2021/04/21 03:47:13;;;;;;;45.22;24.55;;;;;;;4.13;94.18;96987.91;5021605;28;20062;-69
2021/04/21 03:49:39;;;;;;;45.90;23.58;;;;;;;4.09;93.17;96995.19;5038722;28;20498;-69
2021/04/21 03:52:06;;;;;;;43.38;22.88;;;;;;;4.12;93.89;97000.00;5021621;28;20094;-69
2021/04/21 03:54:33;;;;;;;46.15;24.20;;;;;;;4.02;93.48;97006.66;5023522;28;20037;-69
2021/04/21 03:57:00;;;;;;;49.65;24.83;;;;;;;4.13;95.23;96999.69;5023042;28;20033;-69
2021/04/21 03:59:28;;;;;;;41.83;22.65;;;;;;;3.31;94.29;96859.72;5024233;28;20039;-69
2021/04/21 04:01:59;;;;;;;37.85;21.48;;;;;;;4.24;91.58;96995.44;5021630;28;20424;-69
2021/04/21 04:04:29;;;;;;;31.48;18.42;;;;;;;4.13;93.47;96996.94;5021911;28;20037;-69
2021/04/21 04:06:56;;;;;;;50.92;28.20;;;;;;;3.95;91.13;96968.00;5037929;28;20047;-68
2021/04/21 04:09:23;;;;;;;49.65;26.27;;;;;;;3.84;90.74;96939.38;5038420;28;20513;-69
2021/04/21 04:12:04;;;;;;;59.88;31.42;;;;;;;4.35;90.38;97015.03;5020435;28;20474;-69
2021/04/21 04:14:31;;;;;;;56.03;30.48;;;;;;;4.10;89.67;96947.47;5021635;28;20500;-69
2021/04/21 04:17:03;;;;;;;47.47;24.35;;;;;;;3.64;89.46;96857.13;5022810;28;20037;-69
2021/04/21 04:19:31;;;;;;;54.00;29.63;;;;;;;4.58;89.18;97014.41;5023554;28;20030;-69
2021/04/21 04:22:03;;;;;;;50.60;29.42;;;;;;;4.66;88.70;97016.28;5021755;28;20048;-68
2021/04/21 04:24:33;;;;;;;58.03;29.90;;;;;;;4.20;87.78;96931.44;5022186;28;20096;-68
2021/04/21 04:27:01;;;;;;;40.42;23.65;;;;;;;4.83;89.50;97020.06;5022998;28;20128;-69
2021/04/21 04:29:27;;;;;;;39.20;23.85;;;;;;;4.13;89.25;96924.88;5021769;28;20128;-68
2021/04/21 04:31:53;;;;;;;40.20;23.17;;;;;;;5.04;90.10;97021.69;5022553;28;20112;-67
2021/04/21 04:34:21;;;;;;;81.47;37.97;;;;;;;5.20;89.59;97024.63;5038382;28;20049;-68
2021/04/21 04:36:47;;;;;;;46.28;24.20;;;;;;;5.36;88.99;97025.63;5022540;28;20041;-68
2021/04/21 04:39:14;;;;;;;65.13;26.80;;;;;;;4.91;88.32;96917.66;5038042;28;20037;-69
2021/04/21 04:41:40;;;;;;;39.13;21.67;;;;;;;4.98;88.12;96989.28;5022647;28;20048;-69
2021/04/21 04:44:06;;;;;;;40.85;23.00;;;;;;;4.52;90.34;96927.97;5023047;28;20449;-68
2021/04/21 04:46:39;;;;;;;38.58;22.25;;;;;;;5.31;89.56;96998.34;5020699;28;20501;-70
2021/04/21 04:49:09;;;;;;;41.42;25.95;;;;;;;5.58;88.28;97008.75;5023402;28;20476;-70
2021/04/21 04:51:38;;;;;;;36.75;21.85;;;;;;;5.80;86.97;96984.41;5020978;28;20104;-68
2021/04/21 04:54:05;;;;;;;41.67;21.67;;;;;;;5.40;85.99;96930.41;5022378;28;20124;-70
2021/04/21 04:56:33;;;;;;;31.70;19.08;;;;;;;6.02;85.12;96969.47;5022479;28;20064;-70
2021/04/21 04:59:02;;;;;;;32.42;20.80;;;;;;;6.67;84.71;97029.72;5023274;28;20461;-69
2021/04/21 05:01:48;;;;;;;47.13;32.05;;;;;;;6.67;83.93;97035.22;5022276;28;20037;-68
2021/04/21 05:04:18;;;;;;;74.40;36.53;;;;;;;6.50;84.68;96987.88;5023046;28;20140;-69
2021/04/21 05:06:53;;;;;;;55.80;31.23;;;;;;;6.86;83.47;97027.19;5021060;28;20026;-70
2021/04/21 05:09:23;;;;;;;63.83;38.55;;;;;;;7.13;83.11;97037.47;5022945;28;20110;-69
2021/04/21 05:11:52;;;;;;;48.38;30.38;;;;;;;7.40;83.32;97035.88;5022449;28;20025;-69
2021/04/21 05:14:23;;;;;;;42.50;26.17;;;;;;;6.80;82.07;96904.69;5023286;28;20509;-70
2021/04/21 05:16:55;;;;;;;42.33;24.30;;;;;;;7.97;80.28;97039.06;5020647;28;20033;-69
2021/04/21 05:19:46;;;;;;;36.45;23.77;;;;;;;8.18;79.40;97044.34;5023145;28;20044;-70
2021/04/21 05:22:37;;;;;;;35.67;22.13;;;;;;;8.32;78.71;97045.53;5022114;28;20080;-69
2021/04/21 05:25:27;;;;;;;34.38;19.98;;;;;;;8.61;75.08;97036.81;5026095;28;20049;-70
2021/04/21 05:28:01;;;;;;;33.05;17.48;;;;;;;8.58;75.86;97036.72;5026195;28;20099;-70
2021/04/21 05:31:01;;;;;;;39.50;23.05;;;;;;;8.82;75.48;97042.84;5023827;28;20033;-69
2021/04/21 05:34:02;;;;;;;26.48;17.92;;;;;;;8.93;75.82;97048.63;5026288;28;20072;-70
2021/04/21 05:37:14;;;;;;;39.13;22.88;;;;;;;8.52;76.16;96969.16;5025795;28;20041;-69
2021/04/21 05:39:39;;;;;;;37.28;23.95;;;;;;;9.43;75.14;97022.88;5024538;28;20044;-69
2021/04/21 05:42:17;;;;;;;95.82;45.53;;;;;;;9.59;73.80;97023.59;5025864;28;20029;-69
2021/04/21 05:44:54;;;;;;;128.80;64.50;;;;;;;9.87;73.14;97026.91;5024820;28;20045;-67
2021/04/21 05:47:34;;;;;;;35.03;20.85;;;;;;;10.09;71.20;97024.22;5023577;28;20079;-65
2021/04/21 05:50:13;;;;;;;24.42;16.50;;;;;;;10.27;69.84;97022.59;5025180;28;20029;-66
2021/04/21 05:53:16;;;;;;;23.30;14.40;;;;;;;10.49;68.62;97024.56;5015768;28;20108;-64
2021/04/21 05:55:59;;;;;;;23.13;16.05;;;;;;;10.77;67.86;97020.63;5013225;28;20152;-68
2021/04/21 05:58:34;;;;;;;25.05;15.27;;;;;;;11.03;65.13;97028.97;5022883;28;20049;-67
2021/04/21 06:01:28;;;;;;;19.15;13.27;;;;;;;11.17;63.16;96984.81;5023915;28;20041;-65
2021/04/21 06:03:55;;;;;;;23.73;15.32;;;;;;;10.53;63.33;96867.53;5024442;28;20033;-66
2021/04/21 06:06:21;;;;;;;22.08;15.05;;;;;;;11.29;61.95;96981.78;5023233;28;20515;-67
2021/04/21 06:08:47;;;;;;;22.80;17.13;;;;;;;11.63;61.69;97030.63;5023193;28;20580;-69
2021/04/21 06:11:27;;;;;;;20.88;15.32;;;;;;;11.68;61.92;97038.63;5024373;28;20042;-66
2021/04/21 06:14:01;;;;;;;24.98;17.40;;;;;;;11.75;61.47;97028.41;5023066;28;20054;-68
2021/04/21 06:16:28;;;;;;;22.08;13.52;;;;;;;12.00;60.36;97034.22;5015452;28;20484;-67
2021/04/21 06:18:58;;;;;;;19.88;13.07;;;;;;;11.05;60.45;96871.41;5024219;28;20519;-67
2021/04/21 06:21:26;;;;;;;22.00;16.27;;;;;;;11.88;62.42;97031.72;5023969;28;20506;-68
2021/04/21 06:23:54;;;;;;;22.13;15.55;;;;;;;11.56;63.09;97024.94;5024681;28;20124;-68
2021/04/21 06:26:22;;;;;;;24.58;16.13;;;;;;;11.52;63.26;96985.28;5024694;28;20045;-69
2021/04/21 06:29:02;;;;;;;33.35;18.85;;;;;;;11.98;62.31;97031.03;5023058;28;20393;-64
2021/04/21 06:31:33;;;;;;;45.88;21.42;;;;;;;11.29;61.33;96960.41;5023774;28;20033;-67
2021/04/21 06:33:58;;;;;;;20.63;14.00;;;;;;;11.38;61.73;96988.66;5024866;28;20090;-67
2021/04/21 06:36:31;;;;;;;22.42;14.15;;;;;;;11.14;61.66;96913.47;5023622;28;20045;-68
2021/04/21 06:38:57;;;;;;;19.98;14.25;;;;;;;12.25;61.38;97024.16;5022787;28;20041;-68
2021/04/21 06:41:26;;;;;;;21.88;15.32;;;;;;;10.67;61.65;96762.47;5022485;28;20041;-67
2021/04/21 06:43:52;;;;;;;32.60;17.27;;;;;;;12.79;60.35;97032.63;5024714;28;20203;-67
2021/04/21 06:46:19;;;;;;;17.05;12.98;;;;;;;12.64;58.52;97003.13;5023585;28;20045;-67
2021/04/21 06:48:50;;;;;;;14.95;12.02;;;;;;;12.46;56.92;96941.03;5022644;28;20049;-65
2021/04/21 06:51:16;;;;;;;16.65;11.95;;;;;;;13.17;56.19;97032.13;5024311;28;20065;-66
2021/04/21 06:53:45;;;;;;;17.30;12.18;;;;;;;13.24;56.27;97032.19;5023065;28;20061;-67
2021/04/21 06:56:10;;;;;;;17.40;12.35;;;;;;;13.43;55.81;97039.47;5022673;28;20496;-65
2021/04/21 06:58:38;;;;;;;14.73;11.27;;;;;;;13.28;53.75;97016.31;5031191;28;20044;-68
2021/04/21 07:01:08;;;;;;;13.30;10.00;;;;;;;12.68;52.41;96903.88;5023664;28;20037;-69
2021/04/21 07:03:34;;;;;;;12.55;10.43;;;;;;;13.54;53.81;96990.22;5023736;28;20421;-66
2021/04/21 07:05:59;;;;;;;12.73;9.75;;;;;;;13.06;51.01;96889.44;5024157;28;20047;-68
2021/04/21 07:08:33;;;;;;;12.45;10.57;;;;;;;11.88;48.15;96665.34;5023339;28;20037;-66
2021/04/21 07:11:00;;;;;;;12.10;9.77;;;;;;;14.43;48.87;97039.47;5021426;28;20029;-69
2021/04/21 07:13:36;;;;;;;9.43;8.48;;;;;;;14.67;45.86;97041.47;5023900;28;20041;-69
2021/04/21 07:16:08;;;;;;;11.27;10.07;;;;;;;14.85;47.40;97036.72;5021676;28;20068;-69
2021/04/21 07:18:37;;;;;;;11.50;9.05;;;;;;;12.09;48.44;96659.94;5021785;28;20044;-68
2021/04/21 07:21:04;;;;;;;11.27;10.05;;;;;;;14.54;48.74;97043.09;5023272;28;20058;-68
2021/04/21 07:23:31;;;;;;;10.93;9.82;;;;;;;14.19;47.10;96931.53;5023013;28;20249;-65
2021/04/21 07:25:57;;;;;;;14.98;10.02;;;;;;;14.24;46.36;96908.84;5022749;28;20033;-68
2021/04/21 07:28:24;;;;;;;10.63;8.40;;;;;;;14.72;44.63;96949.09;5024161;28;20488;-67
2021/04/21 07:30:51;;;;;;;11.93;8.68;;;;;;;15.18;43.91;97072.59;5021742;28;20340;-68
2021/04/21 07:33:37;;;;;;;10.15;9.15;;;;;;;14.58;45.33;97010.41;5023600;28;20030;-66
2021/04/21 07:36:17;;;;;;;10.15;9.10;;;;;;;14.83;46.46;97000.06;5017335;28;20041;-67
2021/04/21 07:38:49;;;;;;;10.52;8.68;;;;;;;14.51;46.10;96954.69;5021697;28;20045;-70
2021/04/21 07:41:30;;;;;;;9.93;8.32;;;;;;;14.56;45.03;96929.16;5021144;28;20083;-68
2021/04/21 07:43:56;;;;;;;9.38;8.48;;;;;;;15.41;44.42;97047.88;5022746;28;20041;-67
2021/04/21 07:46:23;;;;;;;11.63;9.75;;;;;;;14.12;46.24;96909.22;5022032;28;20211;-69
2021/04/21 07:48:52;;;;;;;11.00;9.20;;;;;;;14.52;47.51;96967.41;5022285;28;20052;-68
2021/04/21 07:51:27;;;;;;;10.95;9.00;;;;;;;15.48;45.31;97047.88;5014911;28;20056;-69
2021/04/21 07:54:04;;;;;;;9.45;8.02;;;;;;;15.48;43.08;97047.88;5024352;28;20568;-67
2021/04/21 07:56:54;;;;;;;8.82;7.93;;;;;;;15.80;42.42;97056.16;5022220;28;20033;-67
2021/04/21 07:59:23;;;;;;;8.88;7.97;;;;;;;16.03;43.10;97051.69;5022299;28;20577;-67
2021/04/21 08:01:51;;;;;;;8.90;8.05;;;;;;;16.08;43.87;97048.47;5028091;28;20327;-65
2021/04/21 08:04:22;;;;;;;9.63;8.45;;;;;;;16.32;42.08;97050.34;5023047;28;20475;-67
2021/04/21 08:06:50;;;;;;;11.38;9.43;;;;;;;16.58;42.62;97047.00;5022720;28;20037;-68
2021/04/21 08:09:17;;;;;;;11.00;9.55;;;;;;;17.01;41.44;97041.91;5021226;28;20607;-67
2021/04/21 08:11:43;;;;;;;8.73;7.82;;;;;;;16.40;40.98;96931.69;5022747;28;20274;-67
2021/04/21 08:14:11;;;;;;;9.68;8.70;;;;;;;16.30;41.44;96926.94;5023035;28;20853;-68
2021/04/21 08:16:36;;;;;;;9.07;8.13;;;;;;;16.06;40.61;96851.69;5022212;28;20034;-68
2021/04/21 08:19:13;;;;;;;9.23;8.30;;;;;;;17.33;40.75;97039.63;5021908;28;20064;-67
2021/04/21 08:21:43;;;;;;;8.77;7.85;;;;;;;17.28;39.56;97033.66;5036725;28;20534;-63
2021/04/21 08:24:14;;;;;;;8.77;7.88;;;;;;;15.81;39.86;96888.16;5023763;28;20477;-67
2021/04/21 08:26:42;;;;;;;10.60;8.40;;;;;;;16.25;41.57;97007.63;5020361;28;20048;-68
2021/04/21 08:29:10;;;;;;;9.10;7.90;;;;;;;16.43;41.52;97037.09;5020714;28;20936;-67
2021/04/21 08:31:36;;;;;;;12.75;8.63;;;;;;;16.34;42.65;96986.41;5020662;28;20354;-69
2021/04/21 08:34:02;;;;;;;8.75;7.75;;;;;;;17.05;41.26;97030.69;5023318;28;20468;-67
2021/04/21 08:36:28;;;;;;;10.05;8.45;;;;;;;16.25;40.49;96885.44;5021137;28;20025;-68
2021/04/21 08:38:53;;;;;;;9.15;8.25;;;;;;;15.97;40.67;96849.34;5034045;28;20059;-69
2021/04/21 08:41:20;;;;;;;10.30;9.20;;;;;;;16.33;41.78;96936.50;5022220;28;20508;-66
2021/04/21 08:43:48;;;;;;;11.35;9.38;;;;;;;16.54;41.17;96979.13;5021880;28;20029;-68
2021/04/21 08:46:16;;;;;;;9.90;8.90;;;;;;;16.68;41.94;97025.00;5022481;28;20058;-68
2021/04/21 08:48:42;;;;;;;13.52;9.10;;;;;;;16.41;41.83;97019.94;5029112;28;20127;-67
2021/04/21 08:51:12;;;;;;;9.73;8.73;;;;;;;15.86;42.23;96943.59;5017682;28;20045;-65
2021/04/21 08:53:38;;;;;;;11.05;8.93;;;;;;;16.27;43.05;97017.22;5022661;28;20029;-66
2021/04/21 08:56:08;;;;;;;15.68;11.43;;;;;;;15.03;42.89;96819.94;5021682;28;20033;-69
2021/04/21 08:58:35;;;;;;;13.88;10.75;;;;;;;16.30;43.96;96998.81;5022371;28;21008;-70
2021/04/21 09:01:01;;;;;;;10.82;9.70;;;;;;;16.41;43.96;97000.38;5023582;28;20041;-68
2021/04/21 09:03:27;;;;;;;13.13;10.80;;;;;;;16.28;44.92;96962.91;5026708;28;20131;-68
2021/04/21 09:05:53;;;;;;;13.50;10.43;;;;;;;16.27;46.22;96997.66;5023693;28;20036;-66
2021/04/21 09:08:20;;;;;;;13.38;10.18;;;;;;;14.77;46.01;96768.25;5027970;28;20037;-69
2021/04/21 09:10:48;;;;;;;12.00;10.50;;;;;;;16.13;45.91;97025.69;5027222;28;20036;-70
2021/04/21 09:13:14;;;;;;;15.95;11.00;;;;;;;15.23;46.71;96893.59;5027510;28;20045;-68
2021/04/21 09:15:43;;;;;;;16.42;11.68;;;;;;;15.66;46.87;96970.44;5034001;28;20036;-68
2021/04/21 09:18:10;;;;;;;14.10;11.32;;;;;;;15.56;46.25;96962.06;5030610;28;20480;-65
2021/04/21 09:20:44;;;;;;;23.88;17.55;;;;;;;15.75;46.41;96997.91;5024973;28;20069;-65
2021/04/21 09:23:13;;;;;;;23.25;14.60;;;;;;;15.08;47.21;96923.53;5027456;28;20029;-67
2021/04/21 09:25:42;;;;;;;21.38;13.98;;;;;;;16.05;47.44;97010.16;5024095;28;20116;-67
2021/04/21 09:28:09;;;;;;;23.73;14.13;;;;;;;16.04;46.60;97008.56;5023955;28;20045;-70
2021/04/21 09:30:36;;;;;;;19.50;13.77;;;;;;;16.07;47.11;97007.75;5022082;28;20107;-68
2021/04/21 09:33:03;;;;;;;16.60;11.98;;;;;;;14.70;47.19;96856.69;5024201;28;20064;-68
2021/04/21 09:35:32;;;;;;;13.13;10.95;;;;;;;15.26;46.68;96998.84;5023472;28;20532;-68
2021/04/21 09:38:10;;;;;;;13.68;11.20;;;;;;;14.72;46.00;96859.84;5023109;28;20025;-69
2021/04/21 09:40:43;;;;;;;19.88;13.50;;;;;;;15.48;46.46;97014.34;5036473;28;20105;-69
2021/04/21 09:43:16;;;;;;;13.93;11.40;;;;;;;15.31;46.50;96997.63;5025581;28;20087;-68
2021/04/21 09:45:48;;;;;;;13.43;10.35;;;;;;;14.43;47.70;96861.13;5023378;28;20444;-68
2021/04/21 09:48:19;;;;;;;10.15;7.93;;;;;;;14.95;47.66;97014.41;5025969;28;20049;-68
2021/04/21 09:50:57;;;;;;;11.07;8.75;;;;;;;15.13;47.61;97014.38;5024065;28;20060;-66
2021/04/21 09:53:28;;;;;;;11.30;8.75;;;;;;;15.26;47.88;97001.63;5024313;28;20662;-67
2021/04/21 09:56:09;;;;;;;12.25;9.70;;;;;;;15.18;46.32;96953.41;5025136;28;20041;-68
2021/04/21 09:58:38;;;;;;;12.82;9.25;;;;;;;15.73;46.61;97003.91;5025355;28;20042;-67
2021/04/21 10:01:28;;;;;;;13.73;9.20;;;;;;;15.87;46.28;96998.25;5023948;28;20032;-65
2021/04/21 10:04:12;;;;;;;11.07;8.30;;;;;;;16.21;45.71;97001.28;5025397;28;20071;-66
2021/04/21 10:06:47;;;;;;;11.43;10.30;;;;;;;16.34;45.21;96994.81;5024542;28;20030;-67
2021/04/21 10:09:22;;;;;;;9.35;7.82;;;;;;;16.91;44.16;97005.63;5025152;28;20484;-67
2021/04/21 10:11:48;;;;;;;8.20;7.40;;;;;;;17.07;43.18;96961.09;5024618;28;20037;-68
2021/04/21 10:14:21;;;;;;;9.77;7.93;;;;;;;16.40;44.34;96970.00;5023997;28;20044;-69
2021/04/21 10:16:47;;;;;;;10.75;7.90;;;;;;;16.18;43.39;96896.69;5025207;28;20033;-69
2021/04/21 10:19:13;;;;;;;8.20;7.20;;;;;;;16.91;42.17;97000.03;5025975;28;20519;-66
2021/04/21 10:21:38;;;;;;;9.80;8.75;;;;;;;16.21;40.95;96900.66;5023293;28;20033;-68
2021/04/21 10:24:05;;;;;;;8.80;7.90;;;;;;;16.73;41.28;96999.34;5025335;28;20578;-69
2021/04/21 10:26:31;;;;;;;13.57;8.48;;;;;;;16.69;41.73;96987.41;5024460;28;20172;-67
2021/04/21 10:28:58;;;;;;;11.25;7.95;;;;;;;16.42;42.06;96934.84;5023660;28;20045;-67
2021/04/21 10:31:25;;;;;;;9.23;8.02;;;;;;;17.23;42.38;97000.53;5024694;28;20041;-68
2021/04/21 10:33:52;;;;;;;8.90;6.68;;;;;;;16.72;41.74;96992.19;5023587;28;20444;-68
2021/04/21 10:36:17;;;;;;;10.77;7.25;;;;;;;16.74;42.07;97001.75;5024242;28;20212;-68
2021/04/21 10:38:43;;;;;;;11.63;7.97;;;;;;;16.92;41.75;96940.03;5024950;28;20255;-64
2021/04/21 10:41:44;;;;;;;10.18;8.50;;;;;;;17.54;42.51;96988.22;5022227;28;20032;-68
2021/04/21 10:44:23;;;;;;;10.82;8.88;;;;;;;17.18;41.20;96956.19;5024425;28;20128;-68
2021/04/21 10:46:55;;;;;;;7.68;6.88;;;;;;;17.48;42.09;96984.31;5022138;28;20041;-66
2021/04/21 10:49:39;;;;;;;9.50;7.93;;;;;;;17.47;42.28;96985.50;5022140;28;20064;-70
2021/04/21 10:52:10;;;;;;;;;;;;;;;17.10;42.08;96986.28;5023393;28;20387;-70
2021/04/21 10:54:36;;;;;;;10.63;8.50;;;;;;;17.10;42.43;96991.88;5019566;28;19931;-68
2021/04/21 10:57:19;;;;;;;9.32;8.07;;;;;;;17.04;41.72;96995.53;5024041;28;20105;-67
2021/04/21 11:00:03;;;;;;;;;;;;;;;16.72;41.33;96995.78;5024012;28;20113;-71
2021/04/21 11:02:41;;;;;;;7.20;6.50;;;;;;;16.20;42.45;96988.53;5024063;28;19931;-67
2021/04/21 11:05:08;;;;;;;6.82;6.18;;;;;;;16.00;44.45;96999.41;5022032;28;20672;-69
2021/04/21 11:07:34;;;;;;;7.35;6.65;;;;;;;16.02;43.19;96987.81;5027446;28;20048;-67
2021/04/21 11:10:00;;;;;;;9.82;7.78;;;;;;;15.92;43.42;96928.00;5023691;28;20026;-70
2021/04/21 11:12:49;;;;;;;9.60;8.43;;;;;;;16.58;43.10;96988.28;5023238;28;20068;-68
2021/04/21 11:15:34;;;;;;;7.65;6.95;;;;;;;16.15;42.33;96992.56;5019959;28;20516;-69
2021/04/21 11:18:08;;;;;;;13.13;8.43;;;;;;;16.11;43.89;97005.72;5023722;28;20072;-67
2021/04/21 11:20:46;;;;;;;9.38;8.38;;;;;;;16.38;45.45;97012.38;5021880;28;20029;-67
2021/04/21 11:26:24;;;;;;;25.70;14.40;;;;;;;16.00;43.34;97016.16;5022993;28;20491;-69
2021/04/21 11:29:02;;;;;;;16.63;9.98;;;;;;;15.98;44.19;97026.94;5022038;28;20037;-69
2021/04/21 11:31:39;;;;;;;15.10;10.35;;;;;;;15.92;44.20;97028.56;5023418;28;20168;-65
2021/04/21 11:34:27;;;;;;;9.73;8.45;;;;;;;15.45;45.42;97014.38;5024100;28;20037;-67
2021/04/21 11:36:59;;;;;;;7.38;6.68;;;;;;;15.23;46.32;97052.66;5020836;28;20037;-71
2021/04/21 11:39:47;;;;;;;13.35;7.13;;;;;;;14.43;53.86;97047.84;5022157;28;20044;-67
2021/04/21 11:42:31;;;;;;;13.38;8.48;;;;;;;13.82;64.96;97059.13;5004072;28;20312;-66
2021/04/21 11:45:15;;;;;;;11.80;8.85;;;;;;;13.40;66.66;97062.50;5022332;28;20075;-66
2021/04/21 11:47:45;;;;;;;12.30;8.88;;;;;;;13.02;71.57;97063.84;5051583;28;20057;-68
2021/04/21 11:50:14;;;;;;;12.30;8.27;;;;;;;12.00;70.74;96987.03;5021299;28;20239;-67
2021/04/21 11:52:43;;;;;;;6.78;5.07;;;;;;;12.07;68.05;97059.31;5023635;28;20041;-67
2021/04/21 11:55:38;;;;;;;9.02;5.68;;;;;;;11.73;70.62;97079.88;5023306;28;20167;-68